• Join FlightAware (Why Join?)
  • Login
  • US Flag 
11:59PM EDT


 

Airport Tracker/Info


-or-


 

Live Flight TrackerFlight Track Log ✈ SKW5550 ✈ 15-Oct-2013 ✈ KDEN - KSMF

Flight Track Log - Related Links

Times and Time Zones

All times are in EDT time to prevent confusion due to time zone crossing. See the SKW5550 flight status page for this flight to view local times or setup timezone preferences in your user account.

Time Position Orientation Groundspeed Altitude Reporting Facility
EDT Latitude Longitude Course Direction KTS MPH feet Rate Location/Type
05:15PM 39.8500 -104.7667 298° West 205 236 7,200  Level Denver TRACON
05:16PM 39.8833 -104.8500 298° West 258 297 9,000 1,920 Climbing Denver TRACON
05:17PM 39.8950 -104.9231 282° West 279 321 10,700 1,920 Climbing Denver Center
05:18PM 39.9072 -105.0436 278° West 310 357 12,500 1,800 Climbing Denver Center
05:19PM 39.9197 -105.1575 278° West 318 366 14,500 1,980 Climbing Denver Center
05:20PM 39.9322 -105.2731 278° West 321 369 16,600 1,560 Climbing Denver Center
05:21PM 39.9464 -105.4036 278° West 339 390 17,800 1,320 Climbing Denver Center
05:22PM 39.9586 -105.5272 277° West 346 398 19,400 1,380 Climbing Denver Center
05:23PM 39.9725 -105.6658 277° West 361 415 20,700 1,380 Climbing Denver Center
05:24PM 39.9728 -105.7983 270° West 368 423 22,300 1,440 Climbing Denver Center
05:25PM 39.9733 -105.9317 270° West 355 409 23,700 1,260 Climbing Denver Center
05:26PM 39.9819 -106.0625 275° West 362 417 24,900 1,080 Climbing Denver Center
05:27PM 39.9897 -106.1922 275° West 361 415 26,000 780 Climbing Denver Center
05:28PM 39.9964 -106.3250 274° West 365 420 26,600 720 Climbing Denver Center
05:29PM 40.0044 -106.4586 275° West 370 426 27,500 660 Climbing Denver Center
05:30PM 40.0275 -106.6028 282° West 376 433 28,000 480 Climbing Denver Center
05:31PM 40.0508 -106.7550 281° West 383 441 28,600 480 Climbing Denver Center
05:32PM 40.0711 -106.8869 281° West 386 444 29,000 480 Climbing Denver Center
05:33PM 40.0953 -107.0411 282° West 389 448 29,600 480 Climbing Denver Center
05:34PM 40.1150 -107.1739 281° West 390 449 30,100 480 Climbing Denver Center
05:35PM 40.1383 -107.3283 281° West 389 448 30,700 480 Climbing Denver Center
05:36PM 40.1572 -107.4625 280° West 390 449 31,200 480 Climbing Denver Center
05:37PM 40.1806 -107.6175 281° West 391 450 31,700 360 Climbing Denver Center
05:38PM 40.2011 -107.7514 281° West 391 450 32,000 120 Climbing Denver Center
05:39PM 40.2203 -107.8881 280° West 397 457 32,000  Level Denver Center
05:40PM 40.2428 -108.0486 280° West 401 461 32,000  Level Denver Center
05:41PM 40.2631 -108.1881 281° West 406 467 32,000  Level Denver Center
05:43PM 40.2850 -108.3522 280° West 410 472 32,000  Level Denver Center
05:43PM 40.2981 -108.4467 280° West 409 471 32,000  Level Salt Lake Center
05:44PM 40.3178 -108.5917 280° West 420 483 32,000  Level Salt Lake Center
05:46PM 40.3458 -108.8031 280° West 417 480 32,000  Level Denver Center
05:47PM 40.3681 -108.9681 280° West 415 478 32,000  Level Denver Center
05:48PM 40.3867 -109.1042 280° West 402 463 32,000  Level Denver Center
05:48PM 40.3981 -109.1950 279° West 398 458 32,000  Level Salt Lake Center
05:51PM 40.4444 -109.5517 280° West 388 447 32,000  Level Denver Center
05:51PM 40.4556 -109.6428 279° West 391 450 32,000  Level Salt Lake Center
05:52PM 40.4722 -109.7783 279° West 394 453 32,000  Level Salt Lake Center
05:54PM 40.4907 -109.9253 279° West  Level FlightAware Approximate
05:55PM 40.5078 -110.0736 279° West 396 456 32,000  Level Salt Lake Center
05:57PM 40.5367 -110.3733 277° West 399 459 32,000  Level Salt Lake Center
05:59PM 40.5658 -110.6833 277° West 402 463 32,000  Level Salt Lake Center
06:00PM 40.5794 -110.8289 277° West 402 463 32,000  Level Salt Lake Center
06:01PM 40.5928 -110.9764 277° West 406 467 32,000  Level Salt Lake Center
06:02PM 40.6058 -111.1244 277° West 407 468 32,000  Level Salt Lake Center
06:04PM 40.6249 -111.3744 276° West  Level FlightAware Approximate
06:05PM 40.6439 -111.5703 276° West 410 472 32,000  Level Salt Lake Center
06:07PM 40.6722 -111.9011 277° West 409 471 32,000  Level Salt Lake Center
06:09PM 40.6834 -112.1304 270° West  Level FlightAware Approximate
06:10PM 40.7075 -112.3489 270° West 407 468 32,000  Level Salt Lake Center
06:12PM 40.7192 -112.5643 274° West  Level FlightAware Approximate
06:13PM 40.7244 -112.7928 274° West 404 465 32,000  Level Salt Lake Center
06:15PM 40.7235 -112.9945 270° West  Level FlightAware Approximate
06:16PM 40.7183 -113.1234 270° West  Level FlightAware Approximate
06:16PM 40.7264 -113.2658 270° West 406 467 32,000  Level Salt Lake Center
06:18PM 40.7228 -113.4557 269° West  Level FlightAware Approximate
06:19PM 40.7269 -113.7097 270° West 408 470 32,000  Level Salt Lake Center
06:20PM 40.7247 -113.8608 269° West 413 475 32,000  Level Salt Lake Center
06:22PM 40.7076 -114.0271 262° West  Level FlightAware Approximate
06:22PM 40.7125 -114.1953 262° West 416 479 32,000  Level Salt Lake Center
06:23PM 40.7067 -114.3447 267° West 412 474 32,000  Level Salt Lake Center
06:24PM 40.7019 -114.4964 268° West 414 476 32,000  Level Salt Lake Center
06:25PM 40.7000 -114.4516 270° West  Level FlightAware Approximate
06:25PM 40.6967 -114.6458 267° West 412 474 32,000  Level Salt Lake Center
06:26PM 40.6900 -114.8011 267° West 409 471 32,000  Level Salt Lake Center
06:28PM 40.6811 -114.9683 266° West 408 470 32,000  Level Salt Lake Center
06:29PM 40.6736 -115.1094 266° West 407 468 32,000  Level Salt Lake Center
06:30PM 40.6614 -115.2731 264° West 402 463 32,000  Level Salt Lake Center
06:31PM 40.6550 -115.4136 267° West 401 461 32,000  Level Salt Lake Center
06:32PM 40.6472 -115.5778 266° West 402 463 32,000  Level Salt Lake Center
06:33PM 40.6417 -115.7181 267° West 402 463 32,000  Level Salt Lake Center
06:34PM 40.6339 -115.8578 266° West 401 461 32,000  Level Salt Lake Center
06:35PM 40.6247 -116.0211 266° West 400 460 32,000  Level Salt Lake Center
06:36PM 40.6167 -116.1583 266° West 397 457 32,000  Level Salt Lake Center
06:37PM 40.6072 -116.3200 266° West 397 457 32,000  Level Salt Lake Center
06:38PM 40.5986 -116.4569 265° West 395 455 32,000  Level Salt Lake Center
06:39PM 40.5889 -116.6156 265° West 392 451 32,000  Level Salt Lake Center
06:40PM 40.5806 -116.7494 265° West 388 447 32,000  Level Salt Lake Center
06:41PM 40.5700 -116.9056 265° West 389 448 32,000  Level Salt Lake Center
06:42PM 40.5303 -117.0369 248° West 413 475 32,000  Level Salt Lake Center
06:43PM 40.4739 -117.1886 244° Southwest 417 480 32,000  Level Salt Lake Center
06:44PM 40.4256 -117.3175 244° Southwest 415 478 32,000  Level Salt Lake Center
06:45PM 40.3689 -117.4681 244° Southwest 413 475 32,000  Level Salt Lake Center
06:46PM 40.3336 -117.5992 251° West 403 464 32,000  Level Salt Lake Center
06:47PM 40.3039 -117.7531 256° West 393 452 32,000  Level Salt Lake Center
06:48PM 40.2750 -117.8831 254° West 390 449 32,000  Level Salt Lake Center
06:49PM 40.2589 -117.9686 256° West 382 440 32,000  Level Oakland Center
06:50PM 40.2311 -118.0983 254° West 380 437 32,000  Level Oakland Center
06:51PM 40.2028 -118.2300 254° West 375 432 32,000  Level Oakland Center
06:52PM 40.1742 -118.3586 254° West 372 428 32,000  Level Oakland Center
06:53PM 40.1456 -118.4881 254° West 372 428 32,000  Level Oakland Center
06:54PM 40.1114 -118.6158 251° West 376 433 32,000  Level Oakland Center
06:55PM 40.0581 -118.7411 241° Southwest 395 455 32,000  Level Oakland Center
06:56PM 39.9936 -118.8906 241° Southwest 397 457 32,000  Level Oakland Center
06:57PM 39.9406 -119.0164 241° Southwest 401 461 32,000  Level Oakland Center
06:58PM 39.8864 -119.1406 240° Southwest 398 458 32,000  Level Oakland Center
06:59PM 39.8325 -119.2664 241° Southwest 397 457 32,000  Level Oakland Center
07:00PM 39.7786 -119.3911 241° Southwest 398 458 32,000 -360 Level Oakland Center
07:01PM 39.7278 -119.5133 242° Southwest 389 448 31,300 -1,020 Descending Oakland Center
07:02PM 39.6694 -119.6461 240° Southwest 422 486 30,000 -1,440 Descending Oakland Center
07:03PM 39.6139 -119.7728 240° Southwest 409 471 28,400 -1,680 Descending Oakland Center
07:04PM 39.5603 -119.8953 240° Southwest 396 456 26,600 -2,040 Descending Oakland Center
07:05PM 39.4933 -120.0475 240° Southwest 407 468 24,300 -1,980 Descending Oakland Center
07:06PM 39.4464 -120.1525 240° Southwest 400 460 22,600 -1,920 Descending Oakland Center
07:07PM 39.3808 -120.3028 241° Southwest 401 461 20,400 -2,040 Descending Oakland Center
07:08PM 39.3269 -120.4211 240° Southwest 385 443 18,500 -1,920 Descending Oakland Center
07:09PM 39.2753 -120.5400 241° Southwest 381 438 16,600 -1,260 Descending Oakland Center
07:10PM 39.2231 -120.6547 240° Southwest 372 428 16,000 -300 Descending Oakland Center
07:11PM 39.1719 -120.7697 240° Southwest 371 427 16,000  Level Oakland Center
07:12PM 39.1203 -120.8828 240° Southwest 368 423 16,000 -60 Level Oakland Center
07:13PM 39.0689 -120.9978 240° Southwest 371 427 15,900 -900 Descending Oakland Center
07:14PM 39.0186 -121.1094 240° Southwest 367 422 14,200 -1,680 Descending Oakland Center
07:15PM 38.9733 -121.2094 240° Southwest 337 388 12,600 -1,800 Descending Oakland Center
07:17PM 38.9167 -121.3500 243° Southwest 314 361 10,100 -2,040 Descending Northern Cal TRACON
07:18PM 38.9000 -121.4667 260° West 295 339 8,000 -1,800 Descending Northern Cal TRACON
07:19PM 38.8833 -121.5667 258° West 286 329 6,600 -1,320 Descending Northern Cal TRACON
07:20PM 38.8500 -121.6500 243° Southwest 252 290 5,400 -900 Descending Northern Cal TRACON
07:20PM 38.8219 -121.6900 228° Southwest 253 291 5,000 -480 Descending Oakland Center
07:21PM 38.7536 -121.6831 175° South 243 280 4,600 -780 Descending Oakland Center
07:22PM 38.6839 -121.6775 176° South 250 288 3,500 -840 Descending Oakland Center
07:23PM 38.6089 -121.6644 172° South 236 272 3,000 -720 Descending Oakland Center
07:25PM 38.6000 -121.6000 100° East 180 207 2,000 -900 Descending Northern Cal TRACON
07:26PM 38.6333 -121.5833 21° North 137 158 1,200 -900 Descending Northern Cal TRACON
07:27PM 38.6667 -121.5833 360° North 126 145 300 -900 Descending Northern Cal TRACON